createdAt,value
2019-03-21T00:01:23.568Z,8.13
2019-03-21T00:03:56.570Z,7.13
2019-03-21T00:06:27.057Z,7.67
2019-03-21T00:08:57.579Z,7.60
2019-03-21T00:11:59.038Z,8.20
2019-03-21T00:14:33.788Z,7.47
2019-03-21T00:17:05.104Z,7.57
2019-03-21T00:19:35.583Z,7.53
2019-03-21T00:22:06.676Z,8.40
2019-03-21T00:24:37.306Z,8.57
2019-03-21T00:27:07.826Z,7.67
2019-03-21T00:29:38.307Z,8.50
2019-03-21T00:32:08.794Z,8.23
2019-03-21T00:34:39.347Z,7.60
2019-03-21T00:37:09.975Z,7.40
2019-03-21T00:39:40.535Z,7.80
2019-03-21T00:42:11.054Z,7.47
2019-03-21T00:44:41.630Z,9.83
2019-03-21T00:47:12.191Z,8.80
2019-03-21T00:49:43.111Z,9.03
2019-03-21T00:52:13.637Z,8.70
2019-03-21T00:54:44.222Z,8.37
2019-03-21T00:57:14.691Z,8.80
2019-03-21T00:59:45.262Z,8.50
2019-03-21T01:02:17.295Z,9.47
2019-03-21T01:04:47.700Z,9.40
2019-03-21T01:07:18.218Z,8.00
2019-03-21T01:09:48.704Z,9.77
2019-03-21T01:12:19.175Z,10.10
2019-03-21T01:14:49.745Z,10.50
2019-03-21T01:17:20.325Z,10.80
2019-03-21T01:19:50.811Z,9.70
2019-03-21T01:22:21.279Z,10.23
2019-03-21T01:24:51.744Z,11.13
2019-03-21T01:27:22.211Z,10.73
2019-03-21T01:29:52.738Z,10.23
2019-03-21T01:32:23.341Z,10.83
2019-03-21T01:34:53.558Z,10.70
2019-03-21T01:37:23.944Z,10.30
2019-03-21T01:39:54.550Z,10.13
2019-03-21T01:42:25.106Z,10.30
2019-03-21T01:44:55.603Z,10.03
2019-03-21T01:47:26.159Z,11.03
2019-03-21T01:49:56.706Z,11.73
2019-03-21T01:52:27.170Z,10.30
2019-03-21T01:54:57.743Z,10.60
2019-03-21T01:57:28.218Z,11.10
2019-03-21T01:59:58.687Z,10.93
2019-03-21T02:02:29.159Z,12.33
2019-03-21T02:04:59.668Z,12.20
2019-03-21T02:07:30.258Z,11.17
2019-03-21T02:10:00.720Z,12.13
2019-03-21T02:12:31.291Z,10.90
2019-03-21T02:15:01.731Z,11.50
2019-03-21T02:17:32.296Z,10.10
2019-03-21T02:20:02.899Z,11.30
2019-03-21T02:22:34.702Z,10.57
2019-03-21T02:25:05.253Z,10.50
2019-03-21T02:27:35.047Z,10.50
2019-03-21T02:30:07.611Z,11.23
2019-03-21T02:32:38.103Z,10.23
2019-03-21T02:35:08.831Z,10.93
2019-03-21T02:37:39.338Z,11.43
2019-03-21T02:40:12.760Z,10.77
2019-03-21T02:42:43.253Z,10.40
2019-03-21T02:45:14.818Z,11.43
2019-03-21T02:47:45.428Z,10.70
2019-03-21T02:50:19.175Z,10.37
2019-03-21T02:52:49.745Z,10.40
2019-03-21T02:55:20.323Z,9.60
2019-03-21T02:57:50.272Z,11.27
2019-03-21T03:00:23.044Z,10.90
2019-03-21T03:02:55.917Z,11.80
2019-03-21T03:05:27.971Z,10.97
2019-03-21T03:07:58.521Z,10.40
2019-03-21T03:10:35.159Z,9.93
2019-03-21T03:13:07.364Z,9.57
2019-03-21T03:15:37.932Z,10.83
2019-03-21T03:18:08.720Z,11.50
2019-03-21T03:20:39.324Z,10.30
2019-03-21T03:23:09.986Z,12.13
2019-03-21T03:25:40.566Z,10.80
2019-03-21T03:28:31.362Z,10.30
2019-03-21T03:31:02.416Z,9.63
2019-03-21T03:33:32.872Z,11.50
2019-03-21T03:36:03.484Z,10.73
2019-03-21T03:38:34.123Z,10.33
2019-03-21T03:41:04.688Z,10.80
2019-03-21T03:43:35.197Z,10.93
2019-03-21T03:46:05.728Z,10.50
2019-03-21T03:48:36.650Z,10.60
2019-03-21T03:51:07.123Z,10.83
2019-03-21T03:53:37.731Z,11.40
2019-03-21T03:56:08.315Z,11.23
2019-03-21T03:58:40.177Z,11.63
2019-03-21T04:01:10.702Z,12.40
2019-03-21T04:03:41.174Z,10.67
2019-03-21T04:06:11.634Z,12.67
2019-03-21T04:08:42.103Z,11.10
2019-03-21T04:11:11.892Z,11.57
2019-03-21T04:13:42.318Z,10.77
2019-03-21T04:16:12.756Z,11.50
2019-03-21T04:18:43.226Z,12.63
2019-03-21T04:21:13.788Z,11.73
2019-03-21T04:23:44.260Z,11.93
2019-03-21T04:26:22.627Z,11.50
2019-03-21T04:28:53.187Z,13.10
2019-03-21T04:31:23.102Z,12.90
2019-03-21T04:33:53.590Z,13.90
2019-03-21T04:36:23.354Z,13.83
2019-03-21T04:38:53.170Z,14.10
2019-03-21T04:41:22.952Z,13.10
2019-03-21T04:43:52.836Z,13.90
2019-03-21T04:46:23.291Z,13.40
2019-03-21T04:48:53.178Z,12.93
2019-03-21T04:51:22.999Z,13.37
2019-03-21T04:53:53.633Z,14.50
2019-03-21T04:56:23.918Z,13.57
2019-03-21T04:58:53.715Z,13.93
2019-03-21T05:01:23.486Z,14.10
2019-03-21T05:03:53.350Z,14.07
2019-03-21T05:06:23.132Z,14.37
2019-03-21T05:08:52.970Z,14.27
2019-03-21T05:11:22.693Z,12.50
2019-03-21T05:13:52.504Z,14.03
2019-03-21T05:16:22.271Z,13.50
2019-03-21T05:18:52.490Z,13.27
2019-03-21T05:21:22.364Z,14.23
2019-03-21T05:23:52.088Z,14.40
2019-03-21T05:26:21.778Z,13.80
2019-03-21T05:28:51.494Z,13.90
2019-03-21T05:31:23.219Z,13.43
2019-03-21T05:33:53.004Z,13.77
2019-03-21T05:36:22.865Z,14.47
2019-03-21T05:38:53.747Z,13.47
2019-03-21T05:41:23.798Z,14.20
2019-03-21T05:43:55.394Z,14.00
2019-03-21T05:46:27.059Z,14.50
2019-03-21T05:48:57.506Z,13.50
2019-03-21T05:51:27.967Z,14.57
2019-03-21T05:53:58.449Z,16.00
2019-03-21T05:56:28.995Z,17.47
2019-03-21T05:58:59.486Z,15.87
2019-03-21T06:01:30.094Z,15.13
2019-03-21T06:04:00.711Z,15.57
2019-03-21T06:06:55.455Z,15.90
2019-03-21T06:09:26.117Z,15.20
2019-03-21T06:11:58.258Z,14.80
2019-03-21T06:14:29.555Z,13.80
2019-03-21T06:17:00.228Z,13.93
2019-03-21T06:19:52.595Z,13.70
2019-03-21T06:22:48.399Z,13.87
2019-03-21T06:25:48.534Z,13.63
2019-03-21T06:28:19.016Z,14.87
2019-03-21T06:30:49.649Z,13.57
2019-03-21T06:33:20.121Z,14.00
2019-03-21T06:35:50.727Z,15.63
2019-03-21T06:38:21.697Z,14.10
2019-03-21T06:40:52.163Z,13.50
2019-03-21T06:43:22.786Z,14.27
2019-03-21T06:45:52.588Z,13.03
2019-03-21T06:48:22.617Z,15.83
2019-03-21T06:50:53.432Z,14.13
2019-03-21T06:53:24.371Z,14.10
2019-03-21T06:55:55.294Z,15.87
2019-03-21T06:58:26.213Z,14.87
2019-03-21T07:00:57.117Z,14.97
2019-03-21T07:03:27.266Z,15.00
2019-03-21T07:05:58.094Z,13.73
2019-03-21T07:08:29.122Z,12.40
2019-03-21T07:11:00.090Z,14.97
2019-03-21T07:13:31.028Z,14.67
2019-03-21T07:16:01.917Z,13.33
2019-03-21T07:18:32.049Z,15.70
2019-03-21T07:21:02.861Z,15.07
2019-03-21T07:23:33.368Z,14.00
2019-03-21T07:26:03.898Z,14.53
2019-03-21T07:28:34.403Z,14.30
2019-03-21T07:31:04.850Z,14.80
2019-03-21T07:33:35.340Z,14.80
2019-03-21T07:36:05.799Z,12.73
2019-03-21T07:38:36.339Z,15.77
2019-03-21T07:41:07.030Z,14.13
2019-03-21T07:43:37.908Z,12.57
2019-03-21T07:46:08.379Z,13.17
2019-03-21T07:48:38.897Z,14.20
2019-03-21T07:51:09.346Z,14.40
2019-03-21T07:53:39.922Z,13.00
2019-03-21T07:56:10.415Z,13.13
2019-03-21T07:58:40.355Z,13.43
2019-03-21T08:01:10.751Z,13.23
2019-03-21T08:03:41.211Z,13.40
2019-03-21T08:06:13.215Z,13.60
2019-03-21T08:08:43.786Z,13.93
2019-03-21T08:11:14.267Z,13.53
2019-03-21T08:13:44.859Z,12.40
2019-03-21T08:16:15.354Z,14.70
2019-03-21T08:18:45.884Z,13.00
2019-03-21T08:21:16.460Z,13.70
2019-03-21T08:23:47.090Z,13.67
2019-03-21T08:26:17.663Z,13.57
2019-03-21T08:28:48.296Z,12.87
2019-03-21T08:31:20.167Z,13.10
2019-03-21T08:33:50.635Z,13.53
2019-03-21T08:36:21.221Z,13.97
2019-03-21T08:38:51.750Z,14.30
2019-03-21T08:41:22.345Z,14.70
2019-03-21T08:43:52.901Z,14.87
2019-03-21T08:46:23.465Z,14.63
2019-03-21T08:48:54.002Z,13.93
2019-03-21T08:51:24.578Z,18.00
2019-03-21T08:53:55.116Z,15.33
2019-03-21T08:56:25.620Z,16.03
2019-03-21T08:58:56.116Z,16.67
2019-03-21T09:01:26.687Z,13.73
2019-03-21T09:03:57.142Z,14.50
2019-03-21T09:06:27.695Z,15.63
2019-03-21T09:08:58.160Z,15.70
2019-03-21T09:11:28.724Z,15.20
2019-03-21T09:13:59.190Z,15.27
2019-03-21T09:16:29.683Z,16.70
2019-03-21T09:19:00.144Z,15.83
2019-03-21T09:21:30.712Z,15.60
2019-03-21T09:24:01.232Z,16.40
2019-03-21T09:26:31.788Z,16.50
2019-03-21T09:29:02.310Z,15.97
2019-03-21T09:31:32.955Z,16.97
2019-03-21T09:34:03.575Z,16.63
2019-03-21T09:36:34.091Z,16.70
2019-03-21T09:39:06.296Z,17.30
2019-03-21T09:41:36.796Z,17.97
2019-03-21T09:44:07.295Z,17.50
2019-03-21T09:46:37.824Z,16.20
2019-03-21T09:49:08.300Z,16.83
2019-03-21T09:51:38.778Z,18.27
2019-03-21T09:54:10.015Z,15.73
2019-03-21T09:56:40.720Z,17.37
2019-03-21T09:59:11.870Z,16.23
2019-03-21T10:01:42.426Z,17.20
2019-03-21T10:04:12.911Z,15.97
2019-03-21T10:06:43.565Z,16.63
2019-03-21T10:09:14.007Z,17.63
2019-03-21T10:11:44.569Z,17.07
2019-03-21T10:14:15.053Z,18.47
2019-03-21T10:16:45.613Z,18.37
2019-03-21T10:19:16.117Z,16.93
2019-03-21T10:21:46.624Z,16.57
2019-03-21T10:24:17.086Z,18.57
2019-03-21T10:26:47.643Z,16.77
2019-03-21T10:29:18.128Z,17.80
2019-03-21T10:31:48.699Z,17.53
2019-03-21T10:34:19.276Z,17.07
2019-03-21T10:36:49.734Z,16.50
2019-03-21T10:39:20.203Z,18.23
2019-03-21T10:41:50.692Z,17.70
2019-03-21T10:44:21.152Z,18.57
2019-03-21T10:46:51.725Z,16.30
2019-03-21T10:49:22.187Z,19.13
2019-03-21T10:51:55.285Z,15.60
2019-03-21T10:54:24.863Z,15.30
2019-03-21T10:56:55.452Z,17.23
2019-03-21T10:59:25.925Z,17.10
2019-03-21T11:02:06.920Z,15.70
2019-03-21T11:04:28.764Z,17.23
2019-03-21T11:07:01.495Z,16.10
2019-03-21T11:09:32.051Z,16.73
2019-03-21T11:12:02.838Z,15.80
2019-03-21T11:14:33.305Z,16.40
2019-03-21T11:17:03.793Z,15.97
2019-03-21T11:19:34.243Z,15.17
2019-03-21T11:22:06.517Z,15.53
2019-03-21T11:24:36.998Z,15.70
2019-03-21T11:27:07.546Z,16.43
2019-03-21T11:29:38.163Z,14.70
2019-03-21T11:32:08.713Z,16.03
2019-03-21T11:34:39.327Z,17.20
2019-03-21T11:37:09.844Z,15.80
2019-03-21T11:39:40.370Z,16.83
2019-03-21T11:42:10.839Z,16.07
2019-03-21T11:44:41.302Z,17.10
2019-03-21T11:47:11.776Z,15.10
2019-03-21T11:49:42.402Z,15.77
2019-03-21T11:52:18.173Z,17.77
2019-03-21T11:54:45.088Z,16.03
2019-03-21T11:57:15.695Z,16.73
2019-03-21T11:59:51.662Z,16.27
2019-03-21T12:02:26.562Z,16.23
2019-03-21T12:04:50.489Z,15.13
2019-03-21T12:07:21.056Z,15.00
2019-03-21T12:09:51.520Z,16.73
2019-03-21T12:12:22.176Z,16.30
2019-03-21T12:14:52.735Z,17.23
2019-03-21T12:17:23.240Z,16.33
2019-03-21T12:19:53.779Z,15.30
2019-03-21T12:22:29.858Z,15.90
2019-03-21T12:24:56.522Z,15.50
2019-03-21T12:27:27.105Z,16.13
2019-03-21T12:29:57.849Z,15.57
2019-03-21T12:32:28.451Z,17.40
2019-03-21T12:34:58.252Z,16.10
2019-03-21T12:37:28.722Z,17.03
2019-03-21T12:39:59.196Z,17.00
2019-03-21T12:42:29.654Z,15.47
2019-03-21T12:45:00.399Z,15.30
2019-03-21T12:47:31.760Z,16.93
2019-03-21T12:50:02.542Z,16.30
2019-03-21T12:55:06.162Z,13.20
2019-03-21T12:57:36.639Z,14.10
2019-03-21T13:00:07.866Z,13.10
2019-03-21T13:02:38.415Z,12.83
2019-03-21T13:05:09.062Z,12.87
2019-03-21T13:07:13.236Z,16.27
2019-03-21T13:07:39.589Z,13.33
2019-03-21T13:10:10.083Z,12.70
2019-03-21T13:12:40.556Z,12.90
2019-03-21T13:15:11.179Z,12.67
2019-03-21T13:17:41.680Z,12.10
2019-03-21T13:20:12.274Z,12.87
2019-03-21T13:22:52.642Z,12.20
2019-03-21T13:25:14.852Z,13.93
2019-03-21T13:27:45.461Z,13.90
2019-03-21T13:30:15.962Z,13.00
2019-03-21T13:32:47.200Z,12.60
2019-03-21T13:35:17.843Z,12.47
2019-03-21T13:37:48.402Z,13.17
2019-03-21T13:40:18.894Z,13.40
2019-03-21T13:42:49.516Z,12.57
2019-03-21T13:45:20.176Z,12.50
2019-03-21T13:47:50.729Z,14.10
2019-03-21T13:50:21.215Z,11.83
2019-03-21T13:52:51.827Z,12.73
2019-03-21T13:55:22.306Z,12.00
2019-03-21T13:57:52.868Z,13.70
2019-03-21T14:00:23.715Z,13.00
2019-03-21T14:02:54.265Z,13.37
2019-03-21T14:05:24.818Z,14.90
2019-03-21T14:07:55.354Z,14.67
2019-03-21T14:10:25.857Z,15.07
2019-03-21T14:12:57.638Z,14.30
2019-03-21T14:15:28.265Z,13.07
2019-03-21T14:17:58.801Z,14.67
2019-03-21T14:20:29.304Z,14.37
2019-03-21T14:22:59.792Z,15.20
2019-03-21T14:25:30.348Z,16.30
2019-03-21T14:28:00.899Z,15.63
2019-03-21T14:30:31.379Z,15.00
2019-03-21T14:33:01.923Z,14.83
2019-03-21T14:35:32.415Z,15.27
2019-03-21T14:38:02.895Z,16.10
2019-03-21T14:40:33.395Z,15.20
2019-03-21T14:43:03.851Z,15.60
2019-03-21T14:45:34.343Z,15.90
2019-03-21T14:48:04.886Z,16.00
2019-03-21T14:50:35.410Z,14.03
2019-03-21T14:53:05.877Z,14.33
2019-03-21T14:55:47.043Z,15.07
2019-03-21T14:58:08.571Z,15.23
2019-03-21T15:00:39.074Z,16.33
2019-03-21T15:03:09.695Z,16.03
2019-03-21T15:05:40.326Z,15.90
2019-03-21T15:08:10.802Z,17.07
2019-03-21T15:10:41.355Z,15.10
2019-03-21T15:13:11.923Z,15.13
2019-03-21T15:15:42.476Z,15.57
2019-03-21T15:18:13.012Z,16.20
2019-03-21T15:20:43.498Z,15.90
2019-03-21T15:23:14.051Z,16.90
2019-03-21T15:25:44.672Z,16.43
2019-03-21T15:28:15.290Z,16.03
2019-03-21T15:30:45.778Z,16.17
2019-03-21T15:33:16.298Z,15.30
2019-03-21T15:35:46.766Z,15.60
2019-03-21T15:38:17.212Z,16.13
2019-03-21T15:40:47.776Z,16.20
2019-03-21T15:43:18.230Z,17.13
2019-03-21T15:45:48.835Z,15.10
2019-03-21T15:48:20.995Z,16.70
2019-03-21T15:51:03.552Z,15.30
2019-03-21T15:53:23.634Z,15.20
2019-03-21T15:55:54.165Z,16.47
2019-03-21T15:58:24.615Z,15.80
2019-03-21T16:00:55.110Z,16.40
2019-03-21T16:03:25.563Z,17.10
2019-03-21T16:05:56.039Z,16.83
2019-03-21T16:08:27.358Z,17.50
2019-03-21T16:10:57.828Z,17.13
2019-03-21T16:13:28.307Z,18.07
2019-03-21T16:15:58.783Z,15.23
2019-03-21T16:18:29.350Z,16.43
2019-03-21T16:20:59.999Z,16.87
2019-03-21T16:23:30.527Z,17.50
2019-03-21T16:26:01.099Z,17.57
2019-03-21T16:28:31.657Z,18.87
2019-03-21T16:31:02.218Z,19.83
2019-03-21T16:33:32.678Z,19.77
2019-03-21T16:36:03.189Z,19.03
2019-03-21T16:38:33.718Z,17.60
2019-03-21T16:41:04.325Z,18.30
2019-03-21T16:43:34.800Z,17.10
2019-03-21T16:46:05.282Z,17.13
2019-03-21T16:48:35.747Z,15.87
2019-03-21T16:51:06.231Z,17.50
2019-03-21T16:53:36.703Z,18.20
2019-03-21T16:56:07.384Z,16.37
2019-03-21T16:58:37.835Z,15.60
2019-03-21T17:01:08.574Z,14.67
2019-03-21T17:03:39.138Z,13.90
2019-03-21T17:06:09.611Z,14.83
2019-03-21T17:08:40.070Z,15.00
2019-03-21T17:11:10.628Z,15.40
2019-03-21T17:13:41.099Z,14.50
2019-03-21T17:16:11.667Z,15.73
2019-03-21T17:18:42.214Z,16.00
2019-03-21T17:21:12.706Z,16.60
2019-03-21T17:23:43.234Z,15.77
2019-03-21T17:26:15.892Z,15.20
2019-03-21T17:28:45.804Z,16.50
2019-03-21T17:31:16.372Z,15.87
2019-03-21T17:33:47.496Z,14.60
2019-03-21T17:36:20.633Z,17.50
2019-03-21T17:38:50.223Z,15.53
2019-03-21T17:41:20.798Z,16.33
2019-03-21T17:43:51.473Z,17.90
2019-03-21T17:46:22.139Z,16.93
2019-03-21T17:48:52.665Z,16.70
2019-03-21T17:51:23.176Z,17.00
2019-03-21T17:53:53.618Z,18.93
2019-03-21T17:56:24.227Z,19.80
2019-03-21T17:58:54.782Z,18.80
2019-03-21T18:01:25.345Z,20.17
2019-03-21T18:03:55.871Z,20.87
2019-03-21T18:06:26.327Z,22.00
2019-03-21T18:08:56.980Z,23.37
2019-03-21T18:11:27.445Z,23.77
2019-03-21T18:13:57.966Z,21.80
2019-03-21T18:16:28.515Z,22.37
2019-03-21T18:18:59.067Z,22.50
2019-03-21T18:21:29.637Z,25.30
2019-03-21T18:24:00.314Z,25.30
2019-03-21T18:26:30.837Z,18.90
2019-03-21T18:29:01.496Z,18.60
2019-03-21T18:31:32.031Z,16.60
2019-03-21T18:34:02.506Z,15.90
2019-03-21T18:36:32.986Z,18.77
2019-03-21T18:39:04.561Z,18.30
2019-03-21T18:41:35.042Z,17.30
2019-03-21T18:44:05.602Z,17.63
2019-03-21T18:46:36.136Z,18.13
2019-03-21T18:49:06.632Z,17.90
2019-03-21T18:51:37.182Z,16.83
2019-03-21T18:54:07.703Z,17.33
2019-03-21T18:56:38.363Z,17.53
2019-03-21T18:59:08.922Z,18.57
2019-03-21T19:01:39.452Z,19.60
2019-03-21T19:04:10.016Z,17.47
2019-03-21T19:06:40.471Z,17.90
2019-03-21T19:09:11.101Z,19.63
2019-03-21T19:11:41.718Z,16.10
2019-03-21T19:14:12.239Z,19.10
2019-03-21T19:16:42.699Z,18.87
2019-03-21T19:19:13.178Z,19.43
2019-03-21T19:21:43.821Z,21.27
2019-03-21T19:24:14.392Z,20.27
2019-03-21T19:26:44.934Z,19.37
2019-03-21T19:29:15.411Z,19.30
2019-03-21T19:31:46.019Z,17.00
2019-03-21T19:34:16.505Z,18.70
2019-03-21T19:36:47.036Z,20.63
2019-03-21T20:11:53.360Z,21.83
2019-03-21T20:14:27.073Z,21.00
2019-03-21T20:17:01.879Z,21.83
2019-03-21T20:19:42.856Z,22.07
2019-03-21T20:22:18.829Z,21.57
2019-03-21T20:25:05.054Z,20.73
2019-03-21T20:27:35.910Z,22.77
2019-03-21T20:30:15.195Z,20.90
